Time;durP1;ratioP1;P1;durP2;ratioP2;P2;SDS_P1;SDS_P2;PMS_P1;PMS_P2;Temp;Humidity;BMP_temperature;BMP_pressure;BME280_temperature;BME280_humidity;BME280_pressure;Samples;Min_cycle;Max_cycle;Signal;HPM_P1;HPM_P2
2022/03/13 00:01:21;;;;;;;38.95;18.25;;;;;;;3.43;70.80;101622.47;6327313;22;20086;-87
2022/03/13 00:03:57;;;;;;;34.83;18.63;;;;;;;3.42;70.56;101620.78;6226284;22;20016;-86
2022/03/13 00:09:58;;;;;;;34.35;18.73;;;;;;;3.82;68.27;101618.41;6302533;22;20025;-83
2022/03/13 00:12:37;;;;;;;32.85;17.55;;;;;;;3.58;69.90;101626.81;6257908;22;20019;-84
2022/03/13 00:18:03;;;;;;;32.30;17.48;;;;;;;3.67;69.16;101621.97;6307914;22;20066;-87
2022/03/13 00:20:30;;;;;;;33.30;18.75;;;;;;;3.54;70.14;101622.72;6268792;22;20022;-87
2022/03/13 00:23:03;;;;;;;35.63;18.05;;;;;;;3.35;70.85;101618.59;6319478;22;20015;-86
2022/03/13 00:25:31;;;;;;;33.83;17.10;;;;;;;3.19;71.66;101621.28;6320501;22;20011;-88
2022/03/13 00:28:07;;;;;;;35.08;18.40;;;;;;;3.19;71.44;101621.28;6316798;22;20068;-84
2022/03/13 00:30:34;;;;;;;38.40;18.15;;;;;;;3.08;72.28;101613.22;6319276;22;20075;-87
2022/03/13 00:33:00;;;;;;;36.83;18.70;;;;;;;3.03;72.46;101617.84;6318704;22;20003;-84
2022/03/13 00:35:27;;;;;;;40.15;17.20;;;;;;;3.01;72.90;101617.94;6291273;22;20041;-84
2022/03/13 00:37:55;;;;;;;30.58;17.30;;;;;;;2.83;73.67;101615.50;6264700;22;20106;-86
2022/03/13 00:40:21;;;;;;;39.08;19.52;;;;;;;2.87;73.85;101619.66;6318172;22;20037;-84
2022/03/13 00:42:49;;;;;;;34.60;17.67;;;;;;;2.94;73.15;101615.75;6318886;22;19999;-87
2022/03/13 00:45:18;;;;;;;35.47;19.40;;;;;;;3.20;71.54;101604.63;6319558;22;20046;-88
2022/03/13 00:47:43;;;;;;;33.38;18.73;;;;;;;2.94;72.86;101607.91;6318160;22;20114;-87
2022/03/13 00:50:12;;;;;;;31.85;19.00;;;;;;;2.91;72.72;101608.06;6314992;22;20312;-83
2022/03/13 00:52:39;;;;;;;38.55;19.90;;;;;;;2.65;74.21;101600.84;6313245;22;20454;-85
2022/03/13 00:55:07;;;;;;;40.78;18.65;;;;;;;2.71;74.37;101600.50;6313311;22;20058;-86
2022/03/13 00:57:32;;;;;;;36.78;20.15;;;;;;;2.70;74.40;101596.19;6286287;22;20015;-85
2022/03/13 00:59:58;;;;;;;36.50;19.52;;;;;;;2.39;75.77;101610.94;6317114;22;20014;-83
2022/03/13 01:02:27;;;;;;;47.88;20.85;;;;;;;2.23;76.63;101607.47;6316925;22;20011;-88
2022/03/13 01:04:56;;;;;;;41.78;20.70;;;;;;;2.07;78.02;101604.00;6323709;22;20033;-85
2022/03/13 01:07:22;;;;;;;45.28;21.40;;;;;;;2.11;77.57;101610.75;6286875;22;20410;-82
2022/03/13 01:09:47;;;;;;;39.28;20.63;;;;;;;2.05;76.64;101605.84;6313011;22;20019;-88
2022/03/13 01:12:13;;;;;;;39.25;21.92;;;;;;;2.12;76.37;101604.63;6312405;22;20030;-82
2022/03/13 01:14:40;;;;;;;40.90;21.42;;;;;;;2.24;75.60;101605.72;6286113;22;20011;-85
2022/03/13 01:17:08;;;;;;;42.08;22.30;;;;;;;2.01;76.92;101599.09;6312734;22;20018;-88
2022/03/13 01:19:34;;;;;;;39.67;21.38;;;;;;;1.99;77.32;101601.78;6312737;22;20016;-88
2022/03/13 01:22:03;;;;;;;38.10;20.70;;;;;;;2.37;75.52;101586.66;6313145;22;20013;-88
2022/03/13 01:24:32;;;;;;;52.08;20.90;;;;;;;2.56;74.07;101591.72;6313865;22;20004;-88
2022/03/13 01:27:04;;;;;;;42.03;21.35;;;;;;;2.43;74.53;101591.53;6314295;22;20022;-87
2022/03/13 01:29:32;;;;;;;;;;;;;;;2.08;76.83;101592.63;6316024;22;20007;-89
2022/03/13 01:31:58;;;;;;;43.10;20.92;;;;;;;2.09;77.10;101602.13;6288068;22;19907;-88
2022/03/13 01:34:58;;;;;;;44.25;22.08;;;;;;;1.90;78.21;101601.41;6317914;22;20403;-90
2022/03/13 01:37:30;;;;;;;39.70;20.30;;;;;;;2.08;77.89;101601.31;6263678;22;20101;-89
2022/03/13 01:40:00;;;;;;;;;;;;;;;1.95;78.00;101591.59;6317834;22;20015;-90
2022/03/13 01:42:29;;;;;;;40.65;20.40;;;;;;;2.14;76.92;101587.06;6318248;22;19922;-91
2022/03/13 01:44:59;;;;;;;41.00;21.17;;;;;;;2.02;77.97;101585.09;6293937;22;20018;-90
2022/03/13 01:47:27;;;;;;;40.63;21.92;;;;;;;2.19;76.97;101582.41;6331831;22;19996;-81
2022/03/13 01:49:56;;;;;;;42.45;21.65;;;;;;;2.40;75.69;101581.25;6301753;22;20071;-83
2022/03/13 01:52:27;;;;;;;43.92;21.60;;;;;;;2.29;75.26;101573.13;6331599;22;20019;-78
2022/03/13 01:54:56;;;;;;;40.10;21.48;;;;;;;2.11;76.40;101574.16;6329470;22;20013;-82
2022/03/13 01:57:23;;;;;;;39.08;21.20;;;;;;;2.09;76.71;101570.75;6325914;22;20014;-81
2022/03/13 01:59:59;;;;;;;42.42;22.20;;;;;;;2.11;76.15;101568.91;6315203;22;20003;-86
2022/03/13 02:02:29;;;;;;;44.17;21.73;;;;;;;2.11;76.36;101574.16;6314465;22;20021;-88
2022/03/13 02:04:57;;;;;;;41.10;22.10;;;;;;;1.90;77.55;101564.81;6314941;22;20396;-87
2022/03/13 02:07:27;;;;;;;42.28;21.85;;;;;;;1.81;78.20;101570.56;6290269;22;20010;-88
2022/03/13 02:09:53;;;;;;;44.38;21.73;;;;;;;1.65;78.60;101561.81;6316844;22;20023;-85
2022/03/13 02:12:20;;;;;;;41.55;21.30;;;;;;;1.63;78.99;101561.03;6291223;22;20063;-83
2022/03/13 02:14:50;;;;;;;45.35;21.35;;;;;;;1.92;78.06;101557.78;6327205;22;20018;-81
2022/03/13 02:17:33;;;;;;;45.35;22.27;;;;;;;1.90;77.77;101549.16;6321245;22;20015;-83
2022/03/13 02:19:58;;;;;;;36.92;20.95;;;;;;;2.14;76.76;101555.69;6330725;22;20059;-80
2022/03/13 02:22:33;;;;;;;41.63;21.45;;;;;;;2.07;77.00;101549.09;6332231;22;20007;-86
2022/03/13 02:24:58;;;;;;;39.75;21.38;;;;;;;2.31;75.86;101546.91;6318775;22;20072;-89
2022/03/13 02:27:29;;;;;;;41.70;20.60;;;;;;;2.50;75.02;101540.56;6290739;22;20011;-85
2022/03/13 02:29:58;;;;;;;38.63;20.15;;;;;;;2.36;75.40;101537.88;6317451;22;20022;-87
2022/03/13 02:32:25;;;;;;;40.53;21.30;;;;;;;2.22;76.10;101537.78;6317908;22;20003;-84
2022/03/13 02:34:50;;;;;;;42.38;21.20;;;;;;;2.05;76.91;101532.66;6316650;22;20003;-88
2022/03/13 02:37:35;;;;;;;43.30;22.30;;;;;;;1.98;76.76;101533.91;6288724;22;20445;-82
2022/03/13 02:40:05;;;;;;;39.38;21.00;;;;;;;1.76;79.07;101538.56;6316620;22;20018;-87
2022/03/13 02:42:32;;;;;;;43.15;21.17;;;;;;;1.80;78.93;101532.25;6316832;22;20034;-87
2022/03/13 02:45:02;;;;;;;39.53;20.58;;;;;;;1.58;79.70;101536.94;6317375;22;20426;-87
2022/03/13 02:47:30;;;;;;;35.13;19.52;;;;;;;1.71;79.62;101533.59;6316997;22;20027;-87
2022/03/13 02:49:56;;;;;;;40.53;19.98;;;;;;;1.73;79.11;101531.75;6318109;22;20003;-88
2022/03/13 02:52:22;;;;;;;33.10;19.90;;;;;;;1.76;78.94;101530.72;6316828;22;20014;-89
2022/03/13 02:54:51;;;;;;;38.97;19.65;;;;;;;1.50;80.05;101529.50;6315887;22;20007;-84
2022/03/13 02:57:23;;;;;;;38.92;19.33;;;;;;;1.53;79.83;101527.56;6289108;22;20007;-86
2022/03/13 02:59:48;;;;;;;32.80;14.93;;;;;;;1.25;80.93;101519.47;6315183;22;20082;-89
2022/03/13 03:02:17;;;;;;;40.15;19.75;;;;;;;1.17;82.20;101516.41;6317298;22;20238;-89
2022/03/13 03:04:44;;;;;;;35.90;18.60;;;;;;;1.45;80.91;101518.44;6263622;22;20067;-88
2022/03/13 03:07:18;;;;;;;40.65;19.65;;;;;;;1.39;81.05;101506.53;6317244;22;20069;-86
2022/03/13 03:09:44;;;;;;;34.10;18.30;;;;;;;1.43;80.60;101515.91;6317421;22;20482;-88
2022/03/13 03:12:13;;;;;;;39.55;19.67;;;;;;;1.32;81.35;101510.41;6289655;22;20015;-91
2022/03/13 03:14:42;;;;;;;41.50;19.33;;;;;;;1.53;80.08;101504.06;6316053;22;20014;-88
2022/03/13 03:17:07;;;;;;;38.05;20.05;;;;;;;1.45;79.79;101511.47;6288124;22;20039;-89
2022/03/13 03:19:55;;;;;;;35.78;19.48;;;;;;;1.29;81.04;101514.94;6293147;22;20442;-85
2022/03/13 03:22:20;;;;;;;42.08;19.42;;;;;;;1.50;79.62;101519.91;6316408;22;20014;-89
2022/03/13 03:24:49;;;;;;;34.30;18.13;;;;;;;1.36;80.16;101517.16;6315454;22;20003;-88
2022/03/13 03:27:18;;;;;;;38.15;20.13;;;;;;;1.24;81.32;101525.63;6315531;22;20013;-86
2022/03/13 03:29:44;;;;;;;36.85;19.33;;;;;;;1.21;81.81;101520.56;6316323;22;20011;-87
2022/03/13 03:32:09;;;;;;;37.63;19.23;;;;;;;1.24;81.32;101517.78;6317787;22;20007;-89
2022/03/13 03:34:35;;;;;;;35.70;18.27;;;;;;;1.48;79.79;101519.16;6316305;22;20011;-87
2022/03/13 03:37:02;;;;;;;33.95;16.98;;;;;;;1.84;78.24;101508.50;6315378;22;20084;-85
2022/03/13 03:39:29;;;;;;;31.02;15.98;;;;;;;1.99;76.81;101518.13;6315439;22;20078;-83
2022/03/13 03:41:57;;;;;;;32.70;16.92;;;;;;;2.05;75.97;101523.00;6316998;22;20037;-89
2022/03/13 03:44:27;;;;;;;30.52;16.67;;;;;;;2.14;75.00;101516.47;6288364;22;20023;-86
2022/03/13 03:46:54;;;;;;;29.85;16.08;;;;;;;2.15;75.27;101518.16;6264214;22;20058;-87
2022/03/13 03:49:20;;;;;;;29.88;16.98;;;;;;;2.00;75.39;101524.19;6315183;22;20068;-88
2022/03/13 03:51:46;;;;;;;31.08;16.08;;;;;;;1.66;76.99;101529.56;6315508;22;20324;-84
2022/03/13 03:54:14;;;;;;;34.97;16.73;;;;;;;1.98;75.92;101523.44;6262862;22;20011;-86
2022/03/13 03:56:40;;;;;;;28.27;15.98;;;;;;;1.97;75.58;101525.22;6314772;22;20035;-88
2022/03/13 03:59:06;;;;;;;35.33;16.58;;;;;;;1.67;76.95;101526.00;6315132;22;20029;-81
2022/03/13 04:01:43;;;;;;;27.38;16.10;;;;;;;1.39;78.30;101527.44;6314575;22;20473;-88
2022/03/13 04:04:09;;;;;;;32.50;16.20;;;;;;;1.30;78.79;101533.13;6315670;22;20381;-89
2022/03/13 04:06:39;;;;;;;36.03;17.05;;;;;;;1.21;79.75;101531.00;6315351;22;20011;-86
2022/03/13 04:09:10;;;;;;;33.75;17.13;;;;;;;1.16;80.40;101522.53;6287478;22;20036;-88
2022/03/13 04:11:40;;;;;;;34.13;16.85;;;;;;;1.26;80.22;101526.38;6314557;22;20011;-86
2022/03/13 04:14:08;;;;;;;34.42;16.60;;;;;;;1.51;78.07;101520.75;6286343;22;20011;-84
2022/03/13 04:16:34;;;;;;;32.90;16.67;;;;;;;1.32;79.05;101520.88;6314787;22;20015;-87
2022/03/13 04:19:00;;;;;;;30.00;15.88;;;;;;;1.38;78.65;101523.16;6315405;22;20022;-83
2022/03/13 04:21:27;;;;;;;30.70;16.77;;;;;;;1.41;78.00;101515.16;6289646;22;20488;-90
2022/03/13 04:23:56;;;;;;;39.75;16.05;;;;;;;1.47;77.43;101520.06;6289092;22;20522;-85
2022/03/13 04:26:25;;;;;;;32.38;15.60;;;;;;;1.45;77.72;101521.06;6293458;22;20083;-88
2022/03/13 04:28:51;;;;;;;36.13;16.17;;;;;;;1.50;77.04;101525.13;6322072;22;20007;-83
2022/03/13 04:31:17;;;;;;;30.27;16.58;;;;;;;1.42;77.32;101527.31;6296065;22;20023;-82
2022/03/13 04:33:43;;;;;;;31.23;16.13;;;;;;;1.43;76.74;101515.91;6294413;22;20014;-84
2022/03/13 04:36:13;;;;;;;33.15;15.70;;;;;;;1.74;75.63;101514.31;6327854;22;20014;-81
2022/03/13 04:38:44;;;;;;;32.22;16.40;;;;;;;1.47;75.71;101527.03;6331813;22;20007;-79
2022/03/13 04:41:10;;;;;;;31.13;15.73;;;;;;;1.33;76.67;101513.84;6332659;22;19991;-78
2022/03/13 04:43:38;;;;;;;28.95;15.75;;;;;;;1.14;77.68;101521.78;6328479;22;20022;-87
2022/03/13 04:46:07;;;;;;;30.52;16.13;;;;;;;1.05;77.56;101519.66;6320509;22;20007;-87
2022/03/13 04:48:35;;;;;;;31.23;14.18;;;;;;;1.31;77.79;101519.16;6292410;22;20011;-90
2022/03/13 04:51:03;;;;;;;32.38;16.75;;;;;;;1.16;77.72;101524.34;6317539;22;20022;-87
2022/03/13 04:53:32;;;;;;;35.45;16.90;;;;;;;1.24;78.27;101523.00;6292316;22;20014;-88
2022/03/13 04:55:57;;;;;;;31.02;15.60;;;;;;;1.30;76.88;101520.06;6320092;22;20386;-89
2022/03/13 04:58:26;;;;;;;30.58;15.77;;;;;;;1.42;76.03;101522.06;6290147;22;20011;-86
2022/03/13 05:00:53;;;;;;;27.75;15.25;;;;;;;1.15;78.48;101522.63;6295942;22;20014;-89
2022/03/13 05:03:18;;;;;;;29.98;16.40;;;;;;;1.26;77.40;101515.94;6319704;22;20331;-89
2022/03/13 05:05:47;;;;;;;28.60;16.25;;;;;;;1.26;77.47;101520.34;6319491;22;20033;-89
2022/03/13 05:08:18;;;;;;;35.13;16.83;;;;;;;1.20;78.49;101526.69;6288730;22;20423;-86
2022/03/13 05:10:46;;;;;;;31.80;16.77;;;;;;;1.29;77.86;101530.63;6321277;22;20023;-90
2022/03/13 05:13:17;;;;;;;33.03;15.63;;;;;;;0.88;80.44;101532.69;6330734;22;20002;-83
2022/03/13 05:15:44;;;;;;;28.35;16.00;;;;;;;1.14;78.68;101540.06;6282108;22;19999;-85
2022/03/13 05:18:12;;;;;;;30.35;15.77;;;;;;;1.42;77.52;101548.19;6330938;22;20011;-90
2022/03/13 05:20:50;;;;;;;31.42;15.20;;;;;;;1.29;77.35;101547.13;6293149;22;20012;-88
2022/03/13 05:23:19;;;;;;;31.48;16.08;;;;;;;1.09;78.65;101544.69;6322509;22;20019;-90
2022/03/13 05:25:47;;;;;;;29.48;16.83;;;;;;;1.35;77.86;101546.81;6324265;22;20011;-88
2022/03/13 05:28:13;;;;;;;32.58;17.40;;;;;;;1.22;78.30;101545.75;6322280;22;20030;-88
2022/03/13 05:30:46;;;;;;;32.13;18.33;;;;;;;0.93;79.73;101539.34;6264987;22;20015;-89
2022/03/13 05:33:13;;;;;;;35.80;17.85;;;;;;;0.81;80.71;101539.97;6326527;22;20063;-90
2022/03/13 05:35:44;;;;;;;36.20;17.65;;;;;;;0.87;81.22;101538.81;6323616;22;20026;-90
2022/03/13 05:38:17;;;;;;;34.35;17.33;;;;;;;0.83;80.81;101535.50;6318973;22;20060;-92
2022/03/13 05:40:49;;;;;;;34.15;16.33;;;;;;;0.86;82.10;101537.16;6269867;22;20045;-86
2022/03/13 05:43:23;;;;;;;34.78;16.83;;;;;;;1.09;81.18;101541.22;6271387;22;20026;-86
2022/03/13 05:45:57;;;;;;;29.85;16.50;;;;;;;1.51;79.15;101542.50;6325726;22;20011;-84
2022/03/13 05:48:30;;;;;;;34.15;16.95;;;;;;;1.44;78.91;101541.13;6331003;22;20003;-90
2022/03/13 05:50:56;;;;;;;29.00;15.98;;;;;;;1.84;77.03;101539.88;6326816;22;20055;-89
2022/03/13 05:53:22;;;;;;;24.90;15.23;;;;;;;2.07;75.73;101543.84;6327576;22;20007;-86
2022/03/13 05:55:57;;;;;;;30.65;14.80;;;;;;;2.63;73.77;101547.72;6328038;22;20011;-85
2022/03/13 05:58:23;;;;;;;29.95;15.88;;;;;;;3.09;70.52;101552.00;6293324;22;20073;-89
2022/03/13 06:01:08;;;;;;;30.35;16.25;;;;;;;2.80;70.24;101552.84;6326325;22;20014;-87
2022/03/13 06:03:34;;;;;;;28.35;15.02;;;;;;;2.85;70.59;101556.06;6321227;22;20011;-84
2022/03/13 06:06:03;;;;;;;27.60;15.13;;;;;;;2.85;70.37;101556.06;6264443;22;20098;-87
2022/03/13 06:08:30;;;;;;;26.92;15.23;;;;;;;3.61;67.93;101561.09;6291123;22;20095;-85
2022/03/13 06:11:15;;;;;;;30.00;14.90;;;;;;;4.06;65.20;101561.84;6319259;22;20015;-83
2022/03/13 06:13:41;;;;;;;;;;;;;;;4.66;61.89;101565.88;6320050;22;20007;-88
2022/03/13 06:16:08;;;;;;;23.85;12.38;;;;;;;5.45;59.34;101572.88;6292845;22;19963;-83
2022/03/13 06:18:34;;;;;;;27.50;13.88;;;;;;;4.62;60.03;101574.88;6314705;22;20078;-81
2022/03/13 06:21:05;;;;;;;27.33;13.18;;;;;;;4.53;60.64;101575.47;6318462;22;20004;-86
2022/03/13 06:23:34;;;;;;;25.23;12.80;;;;;;;5.28;58.63;101581.91;6320588;22;20076;-87
2022/03/13 06:26:04;;;;;;;24.90;14.23;;;;;;;4.48;61.01;101576.69;6322244;22;20003;-87
2022/03/13 06:28:36;;;;;;;24.33;13.48;;;;;;;5.06;59.04;101587.75;6318485;22;20000;-85
2022/03/13 06:31:24;;;;;;;26.02;14.00;;;;;;;4.71;59.67;101583.94;6317533;22;20145;-89
2022/03/13 06:34:05;;;;;;;17.52;10.23;;;;;;;6.10;57.27;101589.44;6323008;22;20008;-86
2022/03/13 06:36:34;;;;;;;36.20;13.02;;;;;;;6.41;54.32;101594.22;6318560;22;20034;-88
2022/03/13 06:39:01;;;;;;;25.05;13.95;;;;;;;6.44;54.63;101587.88;6322362;22;20041;-83
2022/03/13 06:41:27;;;;;;;27.20;14.32;;;;;;;6.35;54.88;101599.09;6291488;22;20053;-81
2022/03/13 06:43:57;;;;;;;26.73;14.77;;;;;;;6.15;55.04;101603.13;6317213;22;20010;-78
2022/03/13 06:46:22;;;;;;;21.92;12.48;;;;;;;5.93;55.89;101600.31;6263554;22;20011;-89
2022/03/13 06:48:48;;;;;;;22.27;13.85;;;;;;;5.90;56.38;101608.41;6323095;22;20053;-77
2022/03/13 06:51:38;;;;;;;21.42;13.13;;;;;;;6.48;54.36;101597.25;6313700;22;20014;-89
2022/03/13 06:54:08;;;;;;;26.25;12.95;;;;;;;6.32;56.10;101610.69;6320038;22;20008;-83
2022/03/13 06:56:39;;;;;;;27.95;13.48;;;;;;;6.51;55.16;101611.06;6320853;22;20011;-88
2022/03/13 06:59:06;;;;;;;23.73;12.43;;;;;;;8.20;51.66;101607.06;6295828;22;20040;-83
2022/03/13 07:01:34;;;;;;;24.98;12.57;;;;;;;8.01;51.05;101620.88;6308910;22;20347;-86
2022/03/13 07:04:01;;;;;;;27.35;14.80;;;;;;;8.07;50.74;101622.19;6312667;22;20015;-82
2022/03/13 07:06:29;;;;;;;24.90;14.32;;;;;;;8.25;50.31;101626.03;6316058;22;20030;-78
2022/03/13 07:08:59;;;;;;;31.80;15.52;;;;;;;8.50;49.31;101623.16;6291177;22;20015;-87
2022/03/13 07:11:30;;;;;;;26.05;15.25;;;;;;;9.26;48.02;101627.53;6296432;22;20019;-84
2022/03/13 07:14:08;;;;;;;26.05;15.70;;;;;;;10.56;44.59;101629.56;6270612;22;20015;-86
2022/03/13 07:19:25;;;;;;;29.00;16.33;;;;;;;8.61;49.68;101633.72;5630464;22;15111414;-85
2022/03/13 07:42:25;;;;;;;30.95;18.15;;;;;;;9.98;48.09;101643.47;6310557;22;20030;-80
2022/03/13 07:53:55;;;;;;;30.92;19.27;;;;;;;8.83;51.59;101638.13;6334264;22;20058;-87
2022/03/13 07:57:03;;;;;;;37.90;18.70;;;;;;;9.48;50.01;101640.66;6270562;22;20043;-88
2022/03/13 08:02:54;;;;;;;34.60;19.38;;;;;;;11.05;45.40;101633.16;6238898;22;20019;-90
2022/03/13 08:06:23;;;;;;;39.42;19.73;;;;;;;10.39;47.40;101635.50;6176596;23;20184;-86
2022/03/13 08:09:04;;;;;;;31.23;20.13;;;;;;;10.39;47.92;101651.41;6288242;22;20030;-88
2022/03/13 08:11:53;;;;;;;30.02;19.02;;;;;;;10.95;46.51;101638.44;6324544;22;20042;-86
2022/03/13 08:14:19;;;;;;;37.08;19.38;;;;;;;11.73;44.85;101637.50;6319175;22;20006;-85
2022/03/13 08:16:45;;;;;;;34.42;19.05;;;;;;;11.49;43.91;101639.72;6301293;22;20007;-91
2022/03/13 08:19:17;;;;;;;34.47;19.08;;;;;;;11.13;45.24;101635.97;6330727;22;20007;-86
2022/03/13 08:52:23;;;;;;;43.72;20.15;;;;;;;11.45;44.50;101649.78;6270937;22;20242;-79
2022/03/13 08:57:52;;;;;;;35.58;19.77;;;;;;;11.15;45.78;101652.56;6326239;22;20003;-82
2022/03/13 09:00:34;;;;;;;29.65;19.05;;;;;;;11.16;45.87;101654.25;6292042;22;20019;-84
2022/03/13 09:03:07;;;;;;;33.50;19.95;;;;;;;10.86;46.99;101648.06;6325924;22;20132;-85
2022/03/13 09:05:58;;;;;;;31.63;18.63;;;;;;;10.54;46.98;101658.00;6332017;22;20033;-88
2022/03/13 09:08:29;;;;;;;32.80;19.25;;;;;;;10.31;47.40;101656.50;6264892;23;20016;-83
2022/03/13 09:10:55;;;;;;;36.75;19.60;;;;;;;10.46;48.92;101655.19;6236271;23;20044;-84
2022/03/13 09:13:21;;;;;;;38.53;19.65;;;;;;;11.31;46.92;101652.84;6230744;23;20033;-86
2022/03/13 09:16:09;;;;;;;39.33;19.05;;;;;;;11.89;44.70;101654.53;6265869;23;20012;-85
2022/03/13 09:19:15;;;;;;;30.70;18.00;;;;;;;11.49;45.35;101667.13;6270285;22;20075;-80
2022/03/13 09:37:53;;;;;;;26.20;16.23;;;;;;;13.07;41.71;101646.72;6291970;22;20026;-82
2022/03/13 09:41:04;;;;;;;22.80;14.18;;;;;;;12.84;40.76;101646.31;6251859;22;20343;-84
2022/03/13 09:46:57;;;;;;;21.37;12.70;;;;;;;13.14;40.38;101637.19;6316509;22;20031;-85
2022/03/13 09:52:51;;;;;;;24.88;13.63;;;;;;;12.76;39.59;101644.38;6245487;22;20055;-89
2022/03/13 09:55:39;;;;;;;14.98;9.95;;;;;;;11.81;40.25;101633.16;6297934;22;20023;-84
2022/03/13 09:58:40;;;;;;;22.08;11.90;;;;;;;12.13;39.47;101634.63;6301298;22;20022;-91
2022/03/13 10:01:21;;;;;;;12.48;7.55;;;;;;;12.26;38.24;101645.75;6295295;22;20045;-87
2022/03/13 10:07:10;;;;;;;14.85;8.02;;;;;;;12.43;37.26;101631.69;6239999;23;20011;-87
2022/03/13 10:09:51;;;;;;;12.65;8.27;;;;;;;12.51;37.79;101623.81;6241718;22;20001;-85
2022/03/13 10:12:17;;;;;;;16.38;9.50;;;;;;;12.31;38.51;101619.56;6229834;22;20078;-82
2022/03/13 10:15:03;;;;;;;13.25;8.63;;;;;;;12.13;38.63;101622.16;6222386;23;20008;-86
2022/03/13 10:17:31;;;;;;;13.40;9.02;;;;;;;11.88;39.60;101622.78;6214911;23;20023;-84
2022/03/13 10:20:14;;;;;;;13.02;8.30;;;;;;;12.27;38.59;101604.88;6215110;23;20017;-80
2022/03/13 10:22:40;;;;;;;14.57;9.05;;;;;;;13.21;37.31;101603.63;6215808;23;20089;-82
2022/03/13 10:25:06;;;;;;;15.57;8.73;;;;;;;14.27;35.33;101617.56;6240690;23;20102;-79
2022/03/13 10:27:33;;;;;;;14.40;8.90;;;;;;;14.12;34.18;101615.63;6216424;23;20066;-83
2022/03/13 10:30:09;;;;;;;16.95;9.00;;;;;;;14.56;33.91;101616.34;6226815;23;20062;-81
2022/03/13 10:32:36;;;;;;;26.52;15.02;;;;;;;15.18;33.40;101615.03;6223315;23;20012;-83
2022/03/13 10:35:02;;;;;;;13.93;9.35;;;;;;;15.49;32.67;101608.88;6218614;23;20008;-81
2022/03/13 10:37:38;;;;;;;17.70;9.43;;;;;;;15.52;32.30;101602.38;6218551;23;20333;-85
2022/03/13 10:40:09;;;;;;;17.15;9.65;;;;;;;15.83;31.52;101614.03;6220628;23;20035;-82
2022/03/13 10:42:43;;;;;;;12.82;8.38;;;;;;;15.25;32.69;101613.34;6219512;23;20016;-79
2022/03/13 10:45:11;;;;;;;12.43;8.73;;;;;;;14.56;33.50;101609.19;6218323;23;20083;-81
2022/03/13 10:47:38;;;;;;;17.30;9.32;;;;;;;15.26;32.19;101602.50;6219318;23;20008;-80
2022/03/13 10:50:04;;;;;;;16.75;10.02;;;;;;;15.65;32.24;101600.00;6218458;23;20008;-80
2022/03/13 10:52:32;;;;;;;15.57;7.78;;;;;;;15.85;31.52;101601.31;6217969;23;20012;-85
2022/03/13 10:55:15;;;;;;;12.15;7.80;;;;;;;16.01;30.49;101605.78;6217264;23;20005;-81
2022/03/13 10:57:58;;;;;;;22.00;12.30;;;;;;;16.22;30.03;101600.72;6215381;23;20372;-80
2022/03/13 11:00:24;;;;;;;15.45;7.65;;;;;;;15.75;30.41;101589.97;6217315;23;20012;-80
2022/03/13 11:02:50;;;;;;;13.35;7.85;;;;;;;16.43;29.49;101589.44;6220238;23;20005;-82
2022/03/13 11:05:19;;;;;;;11.15;7.25;;;;;;;15.83;29.55;101589.97;6223222;23;20008;-86
2022/03/13 11:07:45;;;;;;;11.75;8.15;;;;;;;15.36;30.69;101610.34;6174440;23;20382;-81
2022/03/13 11:10:11;;;;;;;9.63;6.90;;;;;;;15.62;30.14;101594.16;6216431;23;20045;-82
2022/03/13 11:12:40;;;;;;;15.57;7.82;;;;;;;16.57;28.76;101588.75;6216847;23;20395;-79
2022/03/13 11:15:08;;;;;;;13.80;7.65;;;;;;;15.79;29.38;101599.34;6216038;23;20023;-84
2022/03/13 11:17:34;;;;;;;10.55;7.47;;;;;;;15.35;30.18;101603.31;6217755;23;20021;-87
2022/03/13 11:20:03;;;;;;;12.88;6.90;;;;;;;15.48;29.11;101593.84;6219475;23;20482;-88
2022/03/13 11:22:29;;;;;;;10.23;6.70;;;;;;;14.45;29.96;101583.63;6217899;23;20016;-88
2022/03/13 11:25:07;;;;;;;11.98;7.35;;;;;;;13.68;32.54;101582.88;6215751;23;20094;-86
2022/03/13 11:27:35;;;;;;;12.27;7.82;;;;;;;14.09;32.46;101587.44;6217906;23;20384;-87
2022/03/13 11:30:01;;;;;;;13.18;7.25;;;;;;;15.08;30.85;101566.28;6221333;23;20019;-84
2022/03/13 11:32:51;;;;;;;11.32;7.43;;;;;;;16.71;28.53;101566.56;6218481;23;20012;-87
2022/03/13 11:35:18;;;;;;;12.10;7.60;;;;;;;16.01;28.97;101566.53;6216758;23;20371;-79
2022/03/13 11:37:52;;;;;;;18.27;7.82;;;;;;;15.93;28.95;101561.22;6214475;23;20008;-80
2022/03/13 11:41:01;;;;;;;;;;;;;;;;;;;;;
2022/03/13 11:43:33;;;;;;;13.55;8.88;;;;;;;14.52;32.11;101551.00;6223706;23;20013;-80
2022/03/13 11:46:00;;;;;;;23.25;13.02;;;;;;;14.43;32.44;101555.47;6218146;23;20444;-81
2022/03/13 11:48:25;;;;;;;13.85;8.25;;;;;;;14.93;31.17;101553.59;6225290;23;20024;-83
2022/03/13 11:50:59;;;;;;;10.48;7.47;;;;;;;15.32;30.24;101556.41;6229886;23;20016;-82
2022/03/13 11:53:39;;;;;;;16.75;8.15;;;;;;;16.60;28.60;101552.75;6233110;23;20031;-78
2022/03/13 11:56:11;;;;;;;13.98;8.18;;;;;;;15.28;28.19;101546.25;6237066;23;20008;-82
2022/03/13 11:58:48;;;;;;;18.42;8.00;;;;;;;16.12;28.76;101538.56;6237672;23;20015;-81
2022/03/13 12:01:20;;;;;;;14.82;8.65;;;;;;;15.41;29.83;101535.91;6236898;23;20440;-81
2022/03/13 12:04:22;;;;;;;13.93;9.05;;;;;;;14.45;31.69;101526.78;6222843;23;20036;-81
2022/03/13 12:06:50;;;;;;;13.77;8.75;;;;;;;15.03;31.20;101532.06;6168628;23;20408;-81
2022/03/13 12:09:17;;;;;;;13.70;8.30;;;;;;;15.33;30.29;101526.06;6216253;23;20119;-82
2022/03/13 12:11:50;;;;;;;12.93;9.00;;;;;;;15.44;30.06;101522.19;6216698;23;20017;-86
2022/03/13 12:14:18;;;;;;;12.93;8.15;;;;;;;14.06;32.54;101534.44;6215548;23;20078;-82
2022/03/13 12:16:46;;;;;;;15.38;8.80;;;;;;;13.05;34.00;101520.97;6215895;23;20314;-81
2022/03/13 12:19:12;;;;;;;13.07;8.32;;;;;;;12.57;35.29;101510.69;6216294;23;20009;-81
2022/03/13 12:21:43;;;;;;;13.70;9.43;;;;;;;11.93;36.42;101501.81;6214048;23;20131;-84
2022/03/13 12:24:16;;;;;;;13.70;8.68;;;;;;;11.96;36.02;101506.03;6215180;23;20040;-82
2022/03/13 12:26:43;;;;;;;14.15;7.68;;;;;;;12.18;35.94;101496.81;6219297;23;20008;-84
2022/03/13 12:29:17;;;;;;;15.27;8.90;;;;;;;11.53;37.83;101493.31;6217042;23;20008;-81
2022/03/13 12:31:48;;;;;;;15.38;8.65;;;;;;;11.25;38.75;101504.81;6219858;23;20043;-83
2022/03/13 12:34:23;;;;;;;16.95;8.75;;;;;;;10.75;39.85;101480.28;6224043;23;20112;-82
2022/03/13 12:36:50;;;;;;;13.68;9.02;;;;;;;10.85;39.55;101481.97;6223426;23;20093;-82
2022/03/13 12:39:16;;;;;;;14.52;8.35;;;;;;;10.91;39.01;101475.25;6213440;23;20016;-83
2022/03/13 12:41:54;;;;;;;14.25;8.43;;;;;;;10.75;39.41;101465.22;6215158;23;20436;-81
2022/03/13 12:44:21;;;;;;;15.25;9.48;;;;;;;11.19;38.96;101468.25;6214737;23;20476;-81
2022/03/13 12:46:51;;;;;;;15.07;9.27;;;;;;;11.25;38.91;101470.31;6215319;23;20008;-81
2022/03/13 12:49:24;;;;;;;14.43;9.65;;;;;;;10.94;39.27;101463.56;6214900;23;20040;-82
2022/03/13 12:51:50;;;;;;;14.30;9.80;;;;;;;10.81;38.97;101466.47;6214969;23;20012;-80
2022/03/13 12:54:22;;;;;;;17.70;8.88;;;;;;;10.61;39.58;101452.38;6215463;23;20063;-82
2022/03/13 12:56:51;;;;;;;17.05;9.13;;;;;;;11.25;38.60;101457.06;6215767;23;20517;-82
2022/03/13 12:59:33;;;;;;;16.70;9.77;;;;;;;11.48;38.30;101447.75;6212216;23;20024;-81
2022/03/13 13:02:18;;;;;;;14.30;9.00;;;;;;;11.30;38.48;101444.22;6214820;23;20019;-83
2022/03/13 13:04:45;;;;;;;18.75;11.23;;;;;;;11.04;38.58;101461.69;6213773;23;20012;-82
2022/03/13 13:07:15;;;;;;;16.48;10.05;;;;;;;10.82;38.70;101453.06;6213684;23;20429;-81
2022/03/13 13:09:43;;;;;;;18.33;9.40;;;;;;;10.90;38.28;101442.59;6213348;23;20013;-81
2022/03/13 13:12:12;;;;;;;16.73;9.02;;;;;;;11.18;37.11;101450.63;6214844;23;20058;-82
2022/03/13 13:14:39;;;;;;;15.52;9.57;;;;;;;10.78;37.76;101443.72;6215976;23;20050;-81
2022/03/13 13:17:11;;;;;;;19.92;10.73;;;;;;;11.07;37.99;101443.69;6232567;23;20016;-81
2022/03/13 13:19:45;;;;;;;15.63;9.20;;;;;;;10.86;37.67;101430.63;6215289;23;20341;-84